createdAt,value
2023-02-22T00:25:52.905Z,87.72
2023-02-22T00:54:08.719Z,88.22
2023-02-22T01:22:33.333Z,88.81
2023-02-22T01:50:56.454Z,89.28
2023-02-22T02:19:46.031Z,90.2
2023-02-22T02:48:22.546Z,90.41
2023-02-22T03:17:16.559Z,91.22
2023-02-22T03:45:43.428Z,91.27
2023-02-22T04:14:31.027Z,90.92
2023-02-22T04:43:17.173Z,92.54
2023-02-22T05:11:42.279Z,91.98
2023-02-22T05:40:31.707Z,92.93
2023-02-22T06:09:25.745Z,92.82
2023-02-22T06:37:50.424Z,95.12
2023-02-22T07:06:30.537Z,92.46
2023-02-22T07:34:47.275Z,90.54
2023-02-22T08:03:32.708Z,82.68
2023-02-22T08:32:10.537Z,80.65
2023-02-22T09:00:47.319Z,82.71
2023-02-22T09:29:24.910Z,83.32
2023-02-22T09:57:50.048Z,78.16
2023-02-22T10:26:36.737Z,74.19
2023-02-22T10:55:16.744Z,69.5
2023-02-22T11:23:28.465Z,72.49
2023-02-22T11:52:04.702Z,73.65
2023-02-22T12:20:48.083Z,72.54
2023-02-22T12:49:24.738Z,72.42
2023-02-22T13:17:56.544Z,71.07
2023-02-22T17:02:11.578Z,79.52
2023-02-22T17:30:15.762Z,81.4
2023-02-22T17:58:47.788Z,83.32
2023-02-22T18:27:22.698Z,84.3
2023-02-22T18:56:12.401Z,87.26
2023-02-22T19:25:28.462Z,89.08
2023-02-22T20:50:46.758Z,93.42
2023-02-22T21:20:19.655Z,94.6
2023-02-22T21:48:34.862Z,95.6
2023-02-22T22:17:49.607Z,96.73
2023-02-22T23:14:42.299Z,97.34
2023-02-22T23:43:40.411Z,97.93
